Terminal Aerodrome Forecast
Issued by NWS

Current Version | Previous Version | Graphics & Text | Print | Product List | Glossary On
Versions: 1 2 3 4 5 6 7 8 9 10 11 12 13 14 15 16 17 18 19
000
FTUS41 KRNK 201323 AAA
TAFLWB
TAF AMD
KLWB 201323Z 2013/2112 VRB04KT P6SM BKN070
     FM201800 26008KT P6SM SCT060
     FM210000 22004KT P6SM FEW060
     FM210900 24005KT P6SM SCT040=

USA.gov is the U.S. government's official web portal to all federal, state and local government web resources and services.